createdAt,value
2019-05-03T00:02:19.400Z,8.92
2019-05-03T00:07:23.801Z,8.92
2019-05-03T00:12:28.035Z,8.87
2019-05-03T00:17:32.537Z,8.68
2019-05-03T00:22:36.762Z,8.63
2019-05-03T00:27:42.768Z,8.64
2019-05-03T00:32:47.161Z,8.55
2019-05-03T00:37:53.264Z,8.60
2019-05-03T00:42:58.405Z,8.50
2019-05-03T00:48:02.612Z,8.58
2019-05-03T00:53:06.833Z,8.35
2019-05-03T00:58:11.759Z,8.37
2019-05-03T01:03:16.187Z,8.38
2019-05-03T01:08:22.057Z,8.26
2019-05-03T01:13:26.407Z,8.14
2019-05-03T01:18:32.387Z,8.10
2019-05-03T01:23:36.731Z,8.07
2019-05-03T01:28:42.607Z,8.20
2019-05-03T01:33:46.944Z,8.11
2019-05-03T01:38:52.920Z,7.90
2019-05-03T01:43:57.124Z,7.86
2019-05-03T01:49:20.324Z,7.71
2019-05-03T01:54:24.521Z,8.00
2019-05-03T01:59:28.737Z,7.90
2019-05-03T02:04:54.986Z,7.88
2019-05-03T02:09:59.200Z,7.84
2019-05-03T02:15:03.430Z,7.76
2019-05-03T02:20:07.752Z,7.80
2019-05-03T02:25:12.446Z,7.73
2019-05-03T02:30:16.889Z,7.61
2019-05-03T02:35:22.766Z,7.66
2019-05-03T02:40:27.121Z,7.49
2019-05-03T02:45:31.627Z,7.42
2019-05-03T02:50:36.195Z,7.42
2019-05-03T02:55:40.465Z,7.41
2019-05-03T03:01:00.096Z,7.35
2019-05-03T03:06:06.996Z,7.23
2019-05-03T03:11:11.381Z,7.23
2019-05-03T03:16:20.523Z,7.15
2019-05-03T03:21:26.105Z,7.11
2019-05-03T03:26:39.280Z,6.97
2019-05-03T03:32:38.037Z,6.92
2019-05-03T03:37:39.853Z,6.89
2019-05-03T03:42:44.984Z,6.94
2019-05-03T03:47:55.814Z,6.58
2019-05-03T03:53:00.858Z,6.38
2019-05-03T03:58:06.456Z,6.26
2019-05-03T04:03:11.671Z,6.36
2019-05-03T04:08:16.376Z,6.22
2019-05-03T04:13:22.164Z,6.11
2019-05-03T04:18:38.517Z,6.35
2019-05-03T04:23:45.782Z,6.21
2019-05-03T04:28:50.005Z,6.32
2019-05-03T04:33:56.306Z,6.20
2019-05-03T04:39:00.192Z,6.25
2019-05-03T04:44:06.288Z,6.04
2019-05-03T04:49:10.499Z,6.18
2019-05-03T04:54:36.751Z,6.02
2019-05-03T04:59:40.982Z,6.27
2019-05-03T05:04:46.392Z,6.21
2019-05-03T05:09:50.756Z,6.26
2019-05-03T05:14:56.378Z,6.32
2019-05-03T05:20:07.276Z,6.30
2019-05-03T05:25:15.706Z,6.23
2019-05-03T05:30:19.940Z,6.27
2019-05-03T05:35:24.814Z,6.33
2019-05-03T05:40:29.203Z,6.52
2019-05-03T05:45:34.853Z,6.60
2019-05-03T05:50:42.305Z,6.68
2019-05-03T05:56:17.894Z,6.87
2019-05-03T06:01:37.829Z,6.78
2019-05-03T06:07:00.946Z,7.04
2019-05-03T06:12:14.764Z,7.08
2019-05-03T06:17:24.562Z,7.41
2019-05-03T06:22:44.891Z,7.68
2019-05-03T06:27:49.087Z,7.46
2019-05-03T06:32:55.082Z,7.54
2019-05-03T06:37:59.486Z,7.84
2019-05-03T06:43:11.173Z,7.97
2019-05-03T06:48:09.940Z,8.05
2019-05-03T06:53:15.554Z,7.95
2019-05-03T06:58:30.560Z,7.82
2019-05-03T07:03:54.877Z,7.86
2019-05-03T07:09:09.341Z,8.06
2019-05-03T07:14:15.436Z,7.91
2019-05-03T07:19:19.537Z,8.08
2019-05-03T07:24:24.884Z,8.01
2019-05-03T07:29:29.262Z,8.31
2019-05-03T07:34:35.097Z,8.19
2019-05-03T07:39:39.530Z,8.17
2019-05-03T07:44:44.944Z,8.14
2019-05-03T07:49:49.379Z,8.41
2019-05-03T07:54:55.225Z,8.95
2019-05-03T07:59:59.561Z,8.90
2019-05-03T08:05:05.231Z,8.71
2019-05-03T08:10:09.773Z,9.10
2019-05-03T08:15:15.694Z,9.44
2019-05-03T08:20:20.033Z,9.44
2019-05-03T08:25:24.981Z,9.01
2019-05-03T08:30:41.516Z,9.49
2019-05-03T08:35:47.324Z,9.78
2019-05-03T08:40:54.713Z,9.45
2019-05-03T08:45:59.069Z,9.02
2019-05-03T08:51:04.594Z,9.42
2019-05-03T08:56:09.348Z,9.34
2019-05-03T09:01:14.845Z,9.66
2019-05-03T09:06:19.419Z,9.52
2019-05-03T09:11:31.823Z,10.00
2019-05-03T09:16:30.202Z,9.70
2019-05-03T09:21:34.826Z,9.44
2019-05-03T09:26:39.034Z,9.39
2019-05-03T09:31:44.657Z,10.31
2019-05-03T09:36:49.073Z,10.16
2019-05-03T09:41:55.310Z,10.07
2019-05-03T09:46:59.285Z,9.81
2019-05-03T09:52:07.982Z,9.89
2019-05-03T09:57:09.677Z,10.52
2019-05-03T10:02:15.174Z,10.55
2019-05-03T10:07:19.584Z,10.06
2019-05-03T10:12:25.526Z,10.43
2019-05-03T10:17:51.801Z,10.16
2019-05-03T10:22:59.203Z,10.24
2019-05-03T10:28:05.640Z,11.37
2019-05-03T10:33:15.490Z,10.96
2019-05-03T10:38:19.945Z,11.15
2019-05-03T10:43:24.862Z,10.68
2019-05-03T10:48:29.104Z,10.91
2019-05-03T10:53:39.844Z,10.82
2019-05-03T10:58:46.319Z,11.31
2019-05-03T11:03:50.651Z,11.02
2019-05-03T11:08:54.894Z,10.92
2019-05-03T11:13:59.128Z,11.44
2019-05-03T11:19:05.258Z,11.46
2019-05-03T11:24:09.391Z,11.04
2019-05-03T11:29:15.371Z,11.62
2019-05-03T11:34:22.632Z,12.37
2019-05-03T11:39:27.326Z,11.80
2019-05-03T11:44:40.664Z,11.41
2019-05-03T11:49:45.551Z,11.60
2019-05-03T11:54:49.985Z,11.51
2019-05-03T11:59:54.811Z,11.86
2019-05-03T12:05:00.120Z,11.54
2019-05-03T12:10:17.323Z,12.28
2019-05-03T12:15:11.708Z,12.17
2019-05-03T12:20:18.136Z,11.53
2019-05-03T12:25:22.793Z,12.52
2019-05-03T12:30:28.220Z,13.53
2019-05-03T12:35:32.603Z,14.13
2019-05-03T12:40:36.836Z,12.96
2019-05-03T12:45:41.104Z,13.18
2019-05-03T12:50:46.664Z,12.79
2019-05-03T12:55:51.257Z,11.90
2019-05-03T13:01:16.730Z,12.80
2019-05-03T13:06:21.272Z,13.32
2019-05-03T13:11:25.553Z,12.55
2019-05-03T13:16:29.820Z,12.29
2019-05-03T13:21:35.533Z,11.54
2019-05-03T13:26:39.997Z,11.48
2019-05-03T13:31:55.826Z,12.34
2019-05-03T13:36:50.204Z,11.83
2019-05-03T13:41:55.785Z,11.74
2019-05-03T13:47:00.034Z,11.06
2019-05-03T13:52:05.302Z,11.16
2019-05-03T13:57:09.738Z,11.53
2019-05-03T14:02:18.833Z,11.36
2019-05-03T14:07:19.903Z,11.09
2019-05-03T14:12:24.467Z,11.20
2019-05-03T14:17:29.529Z,12.35
2019-05-03T14:22:35.773Z,12.42
2019-05-03T14:27:40.147Z,13.55
2019-05-03T14:32:45.329Z,12.08
2019-05-03T14:37:49.712Z,11.46
2019-05-03T14:42:55.470Z,10.79
2019-05-03T14:47:59.897Z,10.68
2019-05-03T14:53:05.482Z,10.08
2019-05-03T14:58:25.873Z,9.95
2019-05-03T15:03:29.732Z,10.15
2019-05-03T15:08:35.002Z,10.43
2019-05-03T15:13:39.541Z,10.66
2019-05-03T15:18:45.366Z,10.36
2019-05-03T15:23:49.734Z,10.35
2019-05-03T15:28:55.441Z,10.06
2019-05-03T15:33:59.892Z,10.24
2019-05-03T15:39:05.973Z,10.36
2019-05-03T15:44:31.980Z,10.05
2019-05-03T15:49:36.213Z,9.76
2019-05-03T15:54:40.439Z,10.00
2019-05-03T15:59:44.676Z,9.89
2019-05-03T16:04:48.909Z,10.09
2019-05-03T16:09:55.097Z,10.02
2019-05-03T16:14:59.102Z,10.08
2019-05-03T16:20:05.036Z,10.28
2019-05-03T16:25:10.093Z,10.07
2019-05-03T16:30:48.503Z,9.87
2019-05-03T16:35:54.767Z,10.01
2019-05-03T16:40:58.738Z,10.06
2019-05-03T16:46:02.971Z,9.92
2019-05-03T16:51:07.194Z,9.83
2019-05-03T16:56:11.435Z,10.04
2019-05-03T17:01:18.031Z,10.13
2019-05-03T17:06:39.404Z,10.39
2019-05-03T17:11:45.324Z,10.42
2019-05-03T17:16:49.561Z,10.09
2019-05-03T17:21:54.804Z,9.82
2019-05-03T17:26:59.118Z,10.09
2019-05-03T17:32:04.905Z,9.86
2019-05-03T17:37:09.282Z,9.87
2019-05-03T17:42:34.465Z,9.99
2019-05-03T17:47:38.530Z,9.73
2019-05-03T17:52:49.962Z,9.76
2019-05-03T17:58:25.363Z,9.66
2019-05-03T18:03:32.351Z,9.78
2019-05-03T18:08:58.737Z,9.82
2019-05-03T18:14:02.989Z,9.73
2019-05-03T18:19:08.199Z,9.66
2019-05-03T18:24:12.497Z,9.54
2019-05-03T18:29:16.726Z,9.56
2019-05-03T18:34:22.577Z,9.48
2019-05-03T18:39:26.934Z,9.42
2019-05-03T18:44:39.728Z,9.53
2019-05-03T18:49:44.779Z,9.43
2019-05-03T18:54:49.110Z,9.36
2019-05-03T18:59:55.450Z,9.43
2019-05-03T19:04:59.391Z,9.44
2019-05-03T19:10:15.429Z,9.43
2019-05-03T19:15:19.683Z,9.38
2019-05-03T19:20:24.699Z,9.38
2019-05-03T19:25:29.144Z,9.34
2019-05-03T19:30:35.297Z,9.30
2019-05-03T19:35:39.543Z,9.24
2019-05-03T19:40:45.339Z,9.17
2019-05-03T19:45:49.715Z,9.26
2019-05-03T19:50:54.881Z,9.21
2019-05-03T19:55:59.426Z,9.25
2019-05-03T20:01:34.905Z,9.09
2019-05-03T20:06:49.094Z,9.09
2019-05-03T20:11:55.239Z,9.10
2019-05-03T20:16:59.430Z,9.15
2019-05-03T20:22:05.171Z,9.08
2019-05-03T20:27:09.618Z,8.99
2019-05-03T20:32:15.786Z,9.02
2019-05-03T20:37:19.828Z,9.00
2019-05-03T20:42:41.885Z,8.91
2019-05-03T20:47:55.400Z,8.88
2019-05-03T20:52:59.696Z,8.78
2019-05-03T20:58:06.479Z,8.84
2019-05-03T21:03:09.918Z,8.72
2019-05-03T21:08:14.786Z,8.70
2019-05-03T21:13:19.167Z,8.79
2019-05-03T21:18:41.037Z,8.72
2019-05-03T21:23:48.869Z,8.65
2019-05-03T21:28:55.236Z,8.59
2019-05-03T21:34:00.498Z,8.56
2019-05-03T21:39:06.365Z,8.62
2019-05-03T21:44:15.356Z,8.54
2019-05-03T21:49:25.311Z,8.63
2019-05-03T21:54:29.656Z,8.48
2019-05-03T21:59:35.442Z,8.38
2019-05-03T22:04:39.742Z,8.45
2019-05-03T22:09:45.286Z,8.44
2019-05-03T22:15:08.649Z,8.43
2019-05-03T22:20:32.441Z,8.35
2019-05-03T22:25:37.705Z,8.32
2019-05-03T22:30:41.966Z,8.31
2019-05-03T22:35:46.217Z,8.28
2019-05-03T22:40:50.458Z,8.29
2019-05-03T22:45:54.902Z,8.29
2019-05-03T22:50:59.194Z,8.13
2019-05-03T22:56:04.922Z,8.19
2019-05-03T23:01:09.345Z,8.14
2019-05-03T23:06:20.348Z,8.06
2019-05-03T23:11:19.645Z,8.06
2019-05-03T23:16:24.780Z,8.05
2019-05-03T23:21:33.057Z,8.06
2019-05-03T23:26:37.318Z,7.84
2019-05-03T23:31:41.546Z,7.93
2019-05-03T23:36:45.781Z,7.84
2019-05-03T23:41:50.044Z,7.84
2019-05-03T23:47:01.393Z,7.73
2019-05-03T23:52:25.661Z,7.85
2019-05-03T23:57:30.115Z,7.86
